Terminal Aerodrome Forecast
Issued by NWS

Home | Current Version | Previous Version | Text Only | Print | Product List | Glossary Off
Versions: 1 2 3 4 5 6 7 8 9 10 11 12 13 14 15 16 17 18 19 20 21

000
FTUS43 KMPX 232324
TAFAXN
TAF
KAXN 232324Z 2400/2424 15011KT P6SM OVC006
     FM241300 14011KT P6SM BKN015
     FM241500 14014G22KT P6SM BKN025 OVC100
     FM242200 14013G20KT 6SM -RASN BKN025 OVC090=

USA.gov is the U.S. government's official web portal to all federal, state and local government web resources and services.